sensor_id;sensor_type;location;lat;lon;timestamp;pressure;altitude;pressure_sealevel;temperature;humidity
37291;BME280;23175;-33.706;151.094;2022-12-11T00:00:05;99463.04;;;20.80;36.30
37291;BME280;23175;-33.706;151.094;2022-12-11T00:02:36;99458.89;;;20.07;36.89
37291;BME280;23175;-33.706;151.094;2022-12-11T00:05:08;99445.66;;;18.66;37.69
37291;BME280;23175;-33.706;151.094;2022-12-11T00:07:37;99444.60;;;19.03;38.17
37291;BME280;23175;-33.706;151.094;2022-12-11T00:10:08;99440.21;;;19.86;36.81
37291;BME280;23175;-33.706;151.094;2022-12-11T00:12:38;99441.87;;;19.29;37.94
37291;BME280;23175;-33.706;151.094;2022-12-11T00:15:09;99438.69;;;19.96;37.57
37291;BME280;23175;-33.706;151.094;2022-12-11T00:17:39;99430.36;;;19.79;37.82
37291;BME280;23175;-33.706;151.094;2022-12-11T00:20:10;99425.40;;;21.36;35.46
37291;BME280;23175;-33.706;151.094;2022-12-11T00:22:43;99423.91;;;21.86;35.47
37291;BME280;23175;-33.706;151.094;2022-12-11T00:25:13;99418.31;;;22.76;33.86
37291;BME280;23175;-33.706;151.094;2022-12-11T00:27:44;99416.04;;;20.01;36.32
37291;BME280;23175;-33.706;151.094;2022-12-11T00:30:15;99412.06;;;20.16;35.60
37291;BME280;23175;-33.706;151.094;2022-12-11T00:32:44;99397.90;;;19.76;36.04
37291;BME280;23175;-33.706;151.094;2022-12-11T00:35:14;99386.76;;;22.29;32.47
37291;BME280;23175;-33.706;151.094;2022-12-11T00:37:44;99377.19;;;24.25;32.00
37291;BME280;23175;-33.706;151.094;2022-12-11T00:40:14;99372.58;;;19.88;35.20
37291;BME280;23175;-33.706;151.094;2022-12-11T00:42:44;99374.22;;;21.71;33.87
37291;BME280;23175;-33.706;151.094;2022-12-11T00:45:14;99375.41;;;20.64;33.68
37291;BME280;23175;-33.706;151.094;2022-12-11T00:47:44;99368.21;;;19.87;35.47
37291;BME280;23175;-33.706;151.094;2022-12-11T00:50:14;99369.46;;;20.62;34.26
37291;BME280;23175;-33.706;151.094;2022-12-11T00:52:44;99356.12;;;20.41;31.99
37291;BME280;23175;-33.706;151.094;2022-12-11T00:55:14;99345.43;;;22.14;31.38
37291;BME280;23175;-33.706;151.094;2022-12-11T00:57:44;99352.11;;;22.58;31.57
37291;BME280;23175;-33.706;151.094;2022-12-11T01:00:15;99338.28;;;21.64;31.53
37291;BME280;23175;-33.706;151.094;2022-12-11T01:02:45;99332.97;;;20.40;33.80
37291;BME280;23175;-33.706;151.094;2022-12-11T01:05:15;99322.81;;;21.74;31.61
37291;BME280;23175;-33.706;151.094;2022-12-11T01:07:46;99321.42;;;19.49;33.79
37291;BME280;23175;-33.706;151.094;2022-12-11T01:10:17;99312.25;;;21.73;32.39
37291;BME280;23175;-33.706;151.094;2022-12-11T01:12:47;99312.69;;;22.86;30.82
37291;BME280;23175;-33.706;151.094;2022-12-11T01:15:17;99300.94;;;20.44;32.44
37291;BME280;23175;-33.706;151.094;2022-12-11T01:17:48;99295.24;;;22.67;30.88
37291;BME280;23175;-33.706;151.094;2022-12-11T01:20:19;99288.52;;;21.20;32.01
37291;BME280;23175;-33.706;151.094;2022-12-11T01:22:53;99284.07;;;21.37;31.76
37291;BME280;23175;-33.706;151.094;2022-12-11T01:25:23;99293.19;;;20.72;32.17
37291;BME280;23175;-33.706;151.094;2022-12-11T01:27:54;99278.87;;;23.14;30.65
37291;BME280;23175;-33.706;151.094;2022-12-11T01:30:25;99275.22;;;23.46;30.18
37291;BME280;23175;-33.706;151.094;2022-12-11T01:32:55;99262.44;;;22.97;30.93
37291;BME280;23175;-33.706;151.094;2022-12-11T01:35:25;99260.13;;;22.71;30.52
37291;BME280;23175;-33.706;151.094;2022-12-11T01:37:56;99254.97;;;22.73;30.78
37291;BME280;23175;-33.706;151.094;2022-12-11T01:40:26;99247.03;;;20.33;32.95
37291;BME280;23175;-33.706;151.094;2022-12-11T01:42:56;99238.60;;;22.65;31.09
37291;BME280;23175;-33.706;151.094;2022-12-11T01:45:33;99241.47;;;21.87;31.63
37291;BME280;23175;-33.706;151.094;2022-12-11T01:48:08;99244.32;;;20.79;33.26
37291;BME280;23175;-33.706;151.094;2022-12-11T01:50:44;99239.68;;;23.77;29.92
37291;BME280;23175;-33.706;151.094;2022-12-11T01:53:20;99233.29;;;22.26;30.96
37291;BME280;23175;-33.706;151.094;2022-12-11T01:55:54;99237.71;;;22.64;30.78
37291;BME280;23175;-33.706;151.094;2022-12-11T01:58:26;99240.61;;;21.96;31.45
37291;BME280;23175;-33.706;151.094;2022-12-11T02:00:59;99239.80;;;21.74;31.58
37291;BME280;23175;-33.706;151.094;2022-12-11T02:03:29;99241.72;;;23.51;30.12
37291;BME280;23175;-33.706;151.094;2022-12-11T02:06:00;99237.11;;;23.58;29.97
37291;BME280;23175;-33.706;151.094;2022-12-11T02:08:31;99236.14;;;22.96;30.83
37291;BME280;23175;-33.706;151.094;2022-12-11T02:11:08;99228.62;;;22.56;30.15
37291;BME280;23175;-33.706;151.094;2022-12-11T02:13:46;99214.69;;;23.54;29.43
37291;BME280;23175;-33.706;151.094;2022-12-11T02:16:22;99204.51;;;24.36;28.64
37291;BME280;23175;-33.706;151.094;2022-12-11T02:18:58;99203.77;;;22.33;30.52
37291;BME280;23175;-33.706;151.094;2022-12-11T02:21:33;99195.86;;;23.76;29.53
37291;BME280;23175;-33.706;151.094;2022-12-11T02:24:26;99188.47;;;21.87;30.88
37291;BME280;23175;-33.706;151.094;2022-12-11T02:27:15;99181.25;;;23.11;29.73
37291;BME280;23175;-33.706;151.094;2022-12-11T02:29:52;99181.41;;;22.33;31.02
37291;BME280;23175;-33.706;151.094;2022-12-11T02:32:28;99170.03;;;25.49;28.51
37291;BME280;23175;-33.706;151.094;2022-12-11T02:35:05;99163.34;;;23.16;28.61
37291;BME280;23175;-33.706;151.094;2022-12-11T02:37:42;99153.72;;;23.58;29.23
37291;BME280;23175;-33.706;151.094;2022-12-11T02:40:16;99158.12;;;22.42;29.88
37291;BME280;23175;-33.706;151.094;2022-12-11T02:42:50;99150.50;;;24.57;28.87
37291;BME280;23175;-33.706;151.094;2022-12-11T02:45:22;99143.47;;;24.09;28.98
37291;BME280;23175;-33.706;151.094;2022-12-11T02:47:53;99139.98;;;23.65;28.52
37291;BME280;23175;-33.706;151.094;2022-12-11T02:50:26;99125.14;;;23.51;29.39
37291;BME280;23175;-33.706;151.094;2022-12-11T02:52:58;99123.91;;;25.60;27.19
37291;BME280;23175;-33.706;151.094;2022-12-11T02:55:30;99126.21;;;23.18;29.16
37291;BME280;23175;-33.706;151.094;2022-12-11T02:58:05;99122.68;;;23.27;29.21
37291;BME280;23175;-33.706;151.094;2022-12-11T03:00:36;99114.25;;;22.64;30.89
37291;BME280;23175;-33.706;151.094;2022-12-11T03:03:06;99109.68;;;23.67;29.35
37291;BME280;23175;-33.706;151.094;2022-12-11T03:05:36;99102.32;;;23.34;28.82
37291;BME280;23175;-33.706;151.094;2022-12-11T03:08:07;99100.73;;;25.79;27.07
37291;BME280;23175;-33.706;151.094;2022-12-11T03:10:36;99097.81;;;24.19;28.15
37291;BME280;23175;-33.706;151.094;2022-12-11T03:13:07;99094.94;;;25.42;26.73
37291;BME280;23175;-33.706;151.094;2022-12-11T03:15:44;99090.25;;;24.99;26.71
37291;BME280;23175;-33.706;151.094;2022-12-11T03:18:24;99084.93;;;24.89;27.42
37291;BME280;23175;-33.706;151.094;2022-12-11T03:21:04;99079.06;;;24.93;25.95
37291;BME280;23175;-33.706;151.094;2022-12-11T03:23:43;99070.04;;;25.29;27.61
37291;BME280;23175;-33.706;151.094;2022-12-11T03:26:18;99067.09;;;25.85;27.75
37291;BME280;23175;-33.706;151.094;2022-12-11T03:28:53;99066.37;;;25.07;28.36
37291;BME280;23175;-33.706;151.094;2022-12-11T03:31:30;99061.66;;;26.59;28.53
37291;BME280;23175;-33.706;151.094;2022-12-11T03:34:12;99055.61;;;23.59;32.13
37291;BME280;23175;-33.706;151.094;2022-12-11T03:36:43;99056.58;;;24.06;31.93
37291;BME280;23175;-33.706;151.094;2022-12-11T03:39:19;99054.58;;;24.82;30.95
37291;BME280;23175;-33.706;151.094;2022-12-11T03:41:52;99049.84;;;23.40;33.42
37291;BME280;23175;-33.706;151.094;2022-12-11T03:44:23;99055.66;;;21.97;35.38
37291;BME280;23175;-33.706;151.094;2022-12-11T03:46:55;99042.42;;;24.27;32.44
37291;BME280;23175;-33.706;151.094;2022-12-11T03:49:29;99041.43;;;25.32;30.85
37291;BME280;23175;-33.706;151.094;2022-12-11T03:52:03;99045.55;;;25.54;32.05
37291;BME280;23175;-33.706;151.094;2022-12-11T03:54:34;99037.84;;;22.83;34.26
37291;BME280;23175;-33.706;151.094;2022-12-11T03:57:05;99044.93;;;23.73;33.86
37291;BME280;23175;-33.706;151.094;2022-12-11T03:59:36;99043.28;;;25.41;31.52
37291;BME280;23175;-33.706;151.094;2022-12-11T04:02:06;99043.22;;;24.28;33.57
37291;BME280;23175;-33.706;151.094;2022-12-11T04:04:37;99036.99;;;25.28;31.37
37291;BME280;23175;-33.706;151.094;2022-12-11T04:07:07;99036.08;;;24.50;32.67
37291;BME280;23175;-33.706;151.094;2022-12-11T04:09:37;99029.08;;;24.46;32.89
37291;BME280;23175;-33.706;151.094;2022-12-11T04:12:07;99033.42;;;24.27;33.49
37291;BME280;23175;-33.706;151.094;2022-12-11T04:14:37;99028.01;;;25.21;31.43
37291;BME280;23175;-33.706;151.094;2022-12-11T04:17:07;99025.52;;;24.23;32.84
37291;BME280;23175;-33.706;151.094;2022-12-11T04:19:37;99020.31;;;24.66;31.75
37291;BME280;23175;-33.706;151.094;2022-12-11T04:22:07;99021.16;;;24.92;32.39
37291;BME280;23175;-33.706;151.094;2022-12-11T04:24:37;99018.68;;;24.84;32.95
37291;BME280;23175;-33.706;151.094;2022-12-11T04:27:07;99010.12;;;24.66;33.49
37291;BME280;23175;-33.706;151.094;2022-12-11T04:29:38;99007.04;;;25.93;32.12
37291;BME280;23175;-33.706;151.094;2022-12-11T04:32:08;98993.91;;;23.98;34.48
37291;BME280;23175;-33.706;151.094;2022-12-11T04:34:38;98987.52;;;25.02;33.29
37291;BME280;23175;-33.706;151.094;2022-12-11T04:37:08;98982.56;;;25.60;32.57
37291;BME280;23175;-33.706;151.094;2022-12-11T04:39:38;98981.03;;;24.36;34.25
37291;BME280;23175;-33.706;151.094;2022-12-11T04:42:08;98975.37;;;23.58;35.58
37291;BME280;23175;-33.706;151.094;2022-12-11T04:44:37;98970.00;;;24.73;34.69
37291;BME280;23175;-33.706;151.094;2022-12-11T04:47:07;98969.52;;;23.92;34.74
37291;BME280;23175;-33.706;151.094;2022-12-11T04:49:37;98967.70;;;22.82;36.51
37291;BME280;23175;-33.706;151.094;2022-12-11T04:52:08;98962.37;;;22.81;36.77
37291;BME280;23175;-33.706;151.094;2022-12-11T04:54:38;98960.91;;;24.31;34.85
37291;BME280;23175;-33.706;151.094;2022-12-11T04:57:09;98962.09;;;25.60;33.36
37291;BME280;23175;-33.706;151.094;2022-12-11T04:59:39;98957.71;;;24.66;35.38
37291;BME280;23175;-33.706;151.094;2022-12-11T05:02:10;98946.75;;;24.85;34.47
37291;BME280;23175;-33.706;151.094;2022-12-11T05:04:40;98947.39;;;23.19;36.76
37291;BME280;23175;-33.706;151.094;2022-12-11T05:07:11;98945.86;;;24.69;35.12
37291;BME280;23175;-33.706;151.094;2022-12-11T05:09:42;98943.73;;;23.85;36.08
37291;BME280;23175;-33.706;151.094;2022-12-11T05:12:12;98941.72;;;24.68;35.55
37291;BME280;23175;-33.706;151.094;2022-12-11T05:14:42;98931.60;;;25.02;35.39
37291;BME280;23175;-33.706;151.094;2022-12-11T05:17:13;98921.23;;;23.59;36.03
37291;BME280;23175;-33.706;151.094;2022-12-11T05:19:43;98926.98;;;24.61;35.35
37291;BME280;23175;-33.706;151.094;2022-12-11T05:22:16;98928.68;;;23.39;36.47
37291;BME280;23175;-33.706;151.094;2022-12-11T05:24:46;98921.93;;;22.53;37.40
37291;BME280;23175;-33.706;151.094;2022-12-11T05:27:16;98923.81;;;22.51;37.70
37291;BME280;23175;-33.706;151.094;2022-12-11T05:29:46;98921.43;;;22.02;38.13
37291;BME280;23175;-33.706;151.094;2022-12-11T05:32:16;98909.42;;;23.29;37.29
37291;BME280;23175;-33.706;151.094;2022-12-11T05:34:46;98912.90;;;21.79;38.17
37291;BME280;23175;-33.706;151.094;2022-12-11T05:37:16;98918.20;;;21.39;39.47
37291;BME280;23175;-33.706;151.094;2022-12-11T05:39:46;98908.34;;;21.86;39.48
37291;BME280;23175;-33.706;151.094;2022-12-11T05:42:16;98911.03;;;22.04;38.40
37291;BME280;23175;-33.706;151.094;2022-12-11T05:44:48;98915.51;;;22.38;38.59
37291;BME280;23175;-33.706;151.094;2022-12-11T05:47:18;98913.42;;;24.35;36.18
37291;BME280;23175;-33.706;151.094;2022-12-11T05:49:47;98912.96;;;22.40;38.03
37291;BME280;23175;-33.706;151.094;2022-12-11T05:52:18;98909.06;;;23.40;36.67
37291;BME280;23175;-33.706;151.094;2022-12-11T05:54:50;98907.20;;;21.99;38.68
37291;BME280;23175;-33.706;151.094;2022-12-11T05:57:20;98906.78;;;22.72;38.01
37291;BME280;23175;-33.706;151.094;2022-12-11T05:59:50;98908.48;;;22.79;38.10
37291;BME280;23175;-33.706;151.094;2022-12-11T06:02:20;98895.23;;;24.29;35.53
37291;BME280;23175;-33.706;151.094;2022-12-11T06:04:50;98895.36;;;21.91;38.63
37291;BME280;23175;-33.706;151.094;2022-12-11T06:07:20;98885.77;;;24.11;35.92
37291;BME280;23175;-33.706;151.094;2022-12-11T06:09:49;98889.92;;;22.50;38.14
37291;BME280;23175;-33.706;151.094;2022-12-11T06:12:19;98883.21;;;22.05;38.46
37291;BME280;23175;-33.706;151.094;2022-12-11T06:14:49;98885.45;;;22.10;38.78
37291;BME280;23175;-33.706;151.094;2022-12-11T06:17:19;98884.22;;;22.82;38.80
37291;BME280;23175;-33.706;151.094;2022-12-11T06:19:49;98875.52;;;23.72;37.74
37291;BME280;23175;-33.706;151.094;2022-12-11T06:22:19;98870.82;;;23.05;38.79
37291;BME280;23175;-33.706;151.094;2022-12-11T06:24:49;98877.45;;;21.72;39.28
37291;BME280;23175;-33.706;151.094;2022-12-11T06:27:25;98875.87;;;20.96;41.05
37291;BME280;23175;-33.706;151.094;2022-12-11T06:29:55;98875.92;;;22.75;39.09
37291;BME280;23175;-33.706;151.094;2022-12-11T06:32:25;98874.29;;;21.87;40.05
37291;BME280;23175;-33.706;151.094;2022-12-11T06:34:55;98873.09;;;21.13;42.30
37291;BME280;23175;-33.706;151.094;2022-12-11T06:37:25;98870.63;;;23.47;39.47
37291;BME280;23175;-33.706;151.094;2022-12-11T06:39:55;98862.51;;;22.35;40.61
37291;BME280;23175;-33.706;151.094;2022-12-11T06:42:25;98857.44;;;21.34;41.24
37291;BME280;23175;-33.706;151.094;2022-12-11T06:44:55;98863.67;;;20.39;42.24
37291;BME280;23175;-33.706;151.094;2022-12-11T06:47:25;98872.93;;;19.98;43.53
37291;BME280;23175;-33.706;151.094;2022-12-11T06:49:55;98863.71;;;21.46;41.68
37291;BME280;23175;-33.706;151.094;2022-12-11T06:52:26;98868.86;;;22.77;40.17
37291;BME280;23175;-33.706;151.094;2022-12-11T06:54:56;98872.97;;;22.65;40.07
37291;BME280;23175;-33.706;151.094;2022-12-11T06:57:26;98886.58;;;23.01;39.48
37291;BME280;23175;-33.706;151.094;2022-12-11T06:59:57;98880.46;;;22.34;40.71
37291;BME280;23175;-33.706;151.094;2022-12-11T07:02:26;98879.87;;;23.70;38.82
37291;BME280;23175;-33.706;151.094;2022-12-11T07:04:56;98889.28;;;21.87;40.84
37291;BME280;23175;-33.706;151.094;2022-12-11T07:07:27;98899.91;;;21.17;42.21
37291;BME280;23175;-33.706;151.094;2022-12-11T07:09:56;98904.78;;;22.49;40.77
37291;BME280;23175;-33.706;151.094;2022-12-11T07:12:26;98903.26;;;22.10;40.92
37291;BME280;23175;-33.706;151.094;2022-12-11T07:14:56;98899.79;;;22.86;39.98
37291;BME280;23175;-33.706;151.094;2022-12-11T07:17:27;98905.38;;;21.86;41.42
37291;BME280;23175;-33.706;151.094;2022-12-11T07:19:57;98891.96;;;21.02;42.84
37291;BME280;23175;-33.706;151.094;2022-12-11T07:22:28;98890.55;;;22.04;41.22
37291;BME280;23175;-33.706;151.094;2022-12-11T07:24:59;98894.38;;;22.07;40.92
37291;BME280;23175;-33.706;151.094;2022-12-11T07:27:29;98894.40;;;21.14;42.63
37291;BME280;23175;-33.706;151.094;2022-12-11T07:30:00;98896.53;;;20.98;42.79
37291;BME280;23175;-33.706;151.094;2022-12-11T07:32:30;98905.29;;;20.91;42.92
37291;BME280;23175;-33.706;151.094;2022-12-11T07:35:00;98906.31;;;21.69;42.30
37291;BME280;23175;-33.706;151.094;2022-12-11T07:37:30;98906.56;;;22.48;40.89
37291;BME280;23175;-33.706;151.094;2022-12-11T07:40:00;98923.89;;;19.66;44.78
37291;BME280;23175;-33.706;151.094;2022-12-11T07:42:30;98921.79;;;20.95;44.34
37291;BME280;23175;-33.706;151.094;2022-12-11T07:45:00;98932.55;;;20.52;44.03
37291;BME280;23175;-33.706;151.094;2022-12-11T07:47:30;98935.04;;;21.27;43.89
37291;BME280;23175;-33.706;151.094;2022-12-11T07:50:00;98933.38;;;21.91;42.89
37291;BME280;23175;-33.706;151.094;2022-12-11T07:52:30;98922.43;;;20.66;44.11
37291;BME280;23175;-33.706;151.094;2022-12-11T07:55:01;98923.13;;;22.80;40.44
37291;BME280;23175;-33.706;151.094;2022-12-11T07:57:31;98934.70;;;21.39;42.32
37291;BME280;23175;-33.706;151.094;2022-12-11T08:00:02;98940.02;;;20.75;44.20
37291;BME280;23175;-33.706;151.094;2022-12-11T08:02:34;98933.78;;;21.00;44.06
37291;BME280;23175;-33.706;151.094;2022-12-11T08:05:04;98943.28;;;21.18;43.74
37291;BME280;23175;-33.706;151.094;2022-12-11T08:07:35;98943.71;;;20.87;44.01
37291;BME280;23175;-33.706;151.094;2022-12-11T08:10:06;98939.64;;;20.10;44.34
37291;BME280;23175;-33.706;151.094;2022-12-11T08:12:36;98943.04;;;21.46;42.54
37291;BME280;23175;-33.706;151.094;2022-12-11T08:15:07;98946.29;;;22.04;41.31
37291;BME280;23175;-33.706;151.094;2022-12-11T08:17:37;98948.01;;;23.61;39.21
37291;BME280;23175;-33.706;151.094;2022-12-11T08:20:07;98951.66;;;21.53;41.83
37291;BME280;23175;-33.706;151.094;2022-12-11T08:22:38;98959.06;;;20.58;43.53
37291;BME280;23175;-33.706;151.094;2022-12-11T08:25:08;98969.05;;;20.01;44.58
37291;BME280;23175;-33.706;151.094;2022-12-11T08:27:40;98977.55;;;20.56;44.80
37291;BME280;23175;-33.706;151.094;2022-12-11T08:30:11;98977.18;;;20.58;43.92
37291;BME280;23175;-33.706;151.094;2022-12-11T08:32:41;98979.96;;;20.04;43.57
37291;BME280;23175;-33.706;151.094;2022-12-11T08:35:12;98981.37;;;20.19;43.32
37291;BME280;23175;-33.706;151.094;2022-12-11T08:37:42;98979.98;;;20.45;43.18
37291;BME280;23175;-33.706;151.094;2022-12-11T08:40:13;98984.03;;;19.89;43.78
37291;BME280;23175;-33.706;151.094;2022-12-11T08:42:44;98985.36;;;20.93;42.52
37291;BME280;23175;-33.706;151.094;2022-12-11T08:45:14;98976.39;;;18.79;46.18
37291;BME280;23175;-33.706;151.094;2022-12-11T08:47:44;98975.88;;;19.93;45.13
37291;BME280;23175;-33.706;151.094;2022-12-11T08:50:14;98979.50;;;20.21;44.83
37291;BME280;23175;-33.706;151.094;2022-12-11T08:52:44;98981.86;;;21.80;41.83
37291;BME280;23175;-33.706;151.094;2022-12-11T08:55:15;98987.70;;;21.11;42.48
37291;BME280;23175;-33.706;151.094;2022-12-11T08:57:45;98985.09;;;20.73;43.47
37291;BME280;23175;-33.706;151.094;2022-12-11T09:00:15;98983.75;;;19.84;44.70
37291;BME280;23175;-33.706;151.094;2022-12-11T09:02:46;98983.40;;;18.61;46.64
37291;BME280;23175;-33.706;151.094;2022-12-11T09:05:15;98981.29;;;20.57;44.41
37291;BME280;23175;-33.706;151.094;2022-12-11T09:07:45;98980.99;;;21.30;42.87
37291;BME280;23175;-33.706;151.094;2022-12-11T09:10:16;98981.31;;;19.84;45.07
37291;BME280;23175;-33.706;151.094;2022-12-11T09:12:47;98981.22;;;19.19;45.99
37291;BME280;23175;-33.706;151.094;2022-12-11T09:15:17;98985.28;;;21.29;43.71
37291;BME280;23175;-33.706;151.094;2022-12-11T09:17:47;98992.57;;;18.35;48.43
37291;BME280;23175;-33.706;151.094;2022-12-11T09:20:17;98999.09;;;19.02;48.17
37291;BME280;23175;-33.706;151.094;2022-12-11T09:22:48;99000.61;;;19.29;46.78
37291;BME280;23175;-33.706;151.094;2022-12-11T09:25:18;99001.95;;;18.01;50.29
37291;BME280;23175;-33.706;151.094;2022-12-11T09:27:48;98999.20;;;19.47;48.18
37291;BME280;23175;-33.706;151.094;2022-12-11T09:30:18;98994.25;;;19.95;46.75
37291;BME280;23175;-33.706;151.094;2022-12-11T09:32:48;98993.60;;;18.22;49.85
37291;BME280;23175;-33.706;151.094;2022-12-11T09:35:18;98988.07;;;18.29;50.17
37291;BME280;23175;-33.706;151.094;2022-12-11T09:37:48;98979.49;;;21.06;45.87
37291;BME280;23175;-33.706;151.094;2022-12-11T09:40:18;98979.94;;;19.81;47.41
37291;BME280;23175;-33.706;151.094;2022-12-11T09:42:53;98985.12;;;17.52;50.59
37291;BME280;23175;-33.706;151.094;2022-12-11T09:45:23;98980.43;;;18.67;48.63
37291;BME280;23175;-33.706;151.094;2022-12-11T09:47:56;98983.73;;;19.11;48.82
37291;BME280;23175;-33.706;151.094;2022-12-11T09:50:28;98982.43;;;19.59;47.11
37291;BME280;23175;-33.706;151.094;2022-12-11T09:53:06;98981.32;;;17.85;50.37
37291;BME280;23175;-33.706;151.094;2022-12-11T09:55:53;98982.70;;;20.04;47.71
37291;BME280;23175;-33.706;151.094;2022-12-11T09:58:30;98979.47;;;19.95;47.03
37291;BME280;23175;-33.706;151.094;2022-12-11T10:01:11;98976.21;;;19.29;48.09
37291;BME280;23175;-33.706;151.094;2022-12-11T10:03:57;98976.60;;;19.70;47.54
37291;BME280;23175;-33.706;151.094;2022-12-11T10:06:34;98982.19;;;18.95;50.15
37291;BME280;23175;-33.706;151.094;2022-12-11T10:09:13;98985.70;;;20.81;45.99
37291;BME280;23175;-33.706;151.094;2022-12-11T10:11:53;98986.69;;;20.29;47.72
37291;BME280;23175;-33.706;151.094;2022-12-11T10:14:34;98990.78;;;19.73;47.81
37291;BME280;23175;-33.706;151.094;2022-12-11T10:17:14;98991.31;;;18.81;49.66
37291;BME280;23175;-33.706;151.094;2022-12-11T10:19:45;98976.93;;;19.83;47.81
37291;BME280;23175;-33.706;151.094;2022-12-11T10:22:22;98970.17;;;18.28;49.77
37291;BME280;23175;-33.706;151.094;2022-12-11T10:24:55;98961.94;;;19.34;48.74
37291;BME280;23175;-33.706;151.094;2022-12-11T10:27:30;98957.36;;;17.95;50.76
37291;BME280;23175;-33.706;151.094;2022-12-11T10:30:12;98951.05;;;18.14;51.05
37291;BME280;23175;-33.706;151.094;2022-12-11T10:32:52;98943.39;;;21.08;46.02
37291;BME280;23175;-33.706;151.094;2022-12-11T10:35:32;98941.15;;;19.55;48.02
37291;BME280;23175;-33.706;151.094;2022-12-11T10:38:13;98948.46;;;21.46;44.44
37291;BME280;23175;-33.706;151.094;2022-12-11T10:40:48;98959.03;;;18.43;49.73
37291;BME280;23175;-33.706;151.094;2022-12-11T10:43:19;98953.57;;;17.81;50.68
37291;BME280;23175;-33.706;151.094;2022-12-11T10:45:53;98954.98;;;17.11;52.54
37291;BME280;23175;-33.706;151.094;2022-12-11T10:48:23;98947.05;;;20.22;47.71
37291;BME280;23175;-33.706;151.094;2022-12-11T10:51:04;98943.47;;;17.94;51.03
37291;BME280;23175;-33.706;151.094;2022-12-11T10:53:35;98932.65;;;21.07;45.75
37291;BME280;23175;-33.706;151.094;2022-12-11T10:56:05;98935.47;;;18.19;50.49
37291;BME280;23175;-33.706;151.094;2022-12-11T10:58:46;98933.49;;;20.07;46.83
37291;BME280;23175;-33.706;151.094;2022-12-11T11:01:21;98924.89;;;18.32;50.78
37291;BME280;23175;-33.706;151.094;2022-12-11T11:04:01;98916.96;;;20.71;46.76
37291;BME280;23175;-33.706;151.094;2022-12-11T11:06:32;98912.84;;;20.89;45.98
37291;BME280;23175;-33.706;151.094;2022-12-11T11:09:02;98910.90;;;20.49;46.41
37291;BME280;23175;-33.706;151.094;2022-12-11T11:11:34;98907.51;;;17.93;50.54
37291;BME280;23175;-33.706;151.094;2022-12-11T11:14:11;98901.67;;;18.77;49.40
37291;BME280;23175;-33.706;151.094;2022-12-11T11:16:44;98897.98;;;19.80;47.39
37291;BME280;23175;-33.706;151.094;2022-12-11T11:19:25;98890.46;;;19.57;46.86
37291;BME280;23175;-33.706;151.094;2022-12-11T11:22:00;98884.88;;;18.34;50.65
37291;BME280;23175;-33.706;151.094;2022-12-11T11:24:35;98891.00;;;16.70;54.27
37291;BME280;23175;-33.706;151.094;2022-12-11T11:27:17;98887.34;;;18.81;50.16
37291;BME280;23175;-33.706;151.094;2022-12-11T11:29:55;98894.55;;;18.33;50.18
37291;BME280;23175;-33.706;151.094;2022-12-11T11:32:30;98895.92;;;19.53;49.00
37291;BME280;23175;-33.706;151.094;2022-12-11T11:35:20;98895.51;;;22.36;44.86
37291;BME280;23175;-33.706;151.094;2022-12-11T11:37:58;98884.93;;;20.70;46.30
37291;BME280;23175;-33.706;151.094;2022-12-11T11:40:35;98877.59;;;21.76;44.07
37291;BME280;23175;-33.706;151.094;2022-12-11T11:43:12;98874.69;;;21.25;44.26
37291;BME280;23175;-33.706;151.094;2022-12-11T11:45:50;98874.33;;;17.22;51.83
37291;BME280;23175;-33.706;151.094;2022-12-11T11:48:32;98870.91;;;18.26;50.21
37291;BME280;23175;-33.706;151.094;2022-12-11T11:51:13;98868.00;;;19.70;47.98
37291;BME280;23175;-33.706;151.094;2022-12-11T11:53:48;98870.84;;;18.89;49.18
37291;BME280;23175;-33.706;151.094;2022-12-11T11:56:22;98865.74;;;17.91;51.31
37291;BME280;23175;-33.706;151.094;2022-12-11T11:59:02;98857.95;;;19.16;48.63
37291;BME280;23175;-33.706;151.094;2022-12-11T12:01:35;98858.14;;;21.39;45.33
37291;BME280;23175;-33.706;151.094;2022-12-11T12:04:05;98863.00;;;18.95;49.46
37291;BME280;23175;-33.706;151.094;2022-12-11T12:06:53;98861.16;;;19.66;48.12
37291;BME280;23175;-33.706;151.094;2022-12-11T12:09:35;98868.94;;;19.14;49.21
37291;BME280;23175;-33.706;151.094;2022-12-11T12:12:14;98863.73;;;18.80;50.05
37291;BME280;23175;-33.706;151.094;2022-12-11T12:15:00;98855.65;;;21.70;44.87
37291;BME280;23175;-33.706;151.094;2022-12-11T12:17:37;98847.71;;;18.69;48.93
37291;BME280;23175;-33.706;151.094;2022-12-11T12:20:19;98856.72;;;19.83;47.84
37291;BME280;23175;-33.706;151.094;2022-12-11T12:22:59;98861.39;;;20.09;46.89
37291;BME280;23175;-33.706;151.094;2022-12-11T12:25:39;98848.24;;;18.17;50.38
37291;BME280;23175;-33.706;151.094;2022-12-11T12:28:19;98843.24;;;18.79;49.28
37291;BME280;23175;-33.706;151.094;2022-12-11T12:31:03;98847.90;;;20.99;45.86
37291;BME280;23175;-33.706;151.094;2022-12-11T12:33:44;98843.96;;;21.26;44.65
37291;BME280;23175;-33.706;151.094;2022-12-11T12:36:19;98840.75;;;17.86;51.47
37291;BME280;23175;-33.706;151.094;2022-12-11T12:38:56;98836.23;;;17.23;52.14
37291;BME280;23175;-33.706;151.094;2022-12-11T12:41:36;98834.75;;;18.46;50.83
37291;BME280;23175;-33.706;151.094;2022-12-11T12:44:15;98838.65;;;19.75;47.97
37291;BME280;23175;-33.706;151.094;2022-12-11T12:46:56;98842.68;;;18.00;52.18
37291;BME280;23175;-33.706;151.094;2022-12-11T12:49:34;98843.59;;;20.95;46.66
37291;BME280;23175;-33.706;151.094;2022-12-11T12:52:10;98844.74;;;22.63;43.18
37291;BME280;23175;-33.706;151.094;2022-12-11T12:54:42;98846.77;;;23.09;42.81
37291;BME280;23175;-33.706;151.094;2022-12-11T12:57:13;98849.93;;;23.66;41.66